Terminal Aerodrome Forecast
Issued by NWS

Home | Current Version | Previous Version | Text Only | Print | Product List | Glossary On
Versions: 1 2 3 4 5 6 7 8 9 10 11 12 13 14 15 16 17 18 19 20
400
FTUS44 KMAF 232320
TAFPEQ
TAF
KPEQ 232320Z 2400/2424 13011KT P6SM SCT060 SCT120
      TEMPO 2400/2402 VRB20G35KT TSRA BKN040CB
     FM240500 09009KT P6SM SCT150 SCT250=

USA.gov is the U.S. government's official web portal to all federal, state and local government web resources and services.